createdAt,value
2018-07-23T00:01:00.115Z,100444.05
2018-07-23T00:03:28.631Z,100438.94
2018-07-23T00:05:56.831Z,100433.36
2018-07-23T00:08:24.883Z,100437.45
2018-07-23T00:10:52.980Z,100433.55
2018-07-23T00:13:21.049Z,100431.98
2018-07-23T00:15:49.326Z,100435.80
2018-07-23T00:18:17.355Z,100433.02
2018-07-23T00:20:45.487Z,100436.87
2018-07-23T00:23:13.507Z,100394.36
2018-07-23T00:25:41.588Z,100432.73
2018-07-23T00:28:09.684Z,100436.36
2018-07-23T00:30:37.848Z,100429.59
2018-07-23T00:33:05.875Z,100426.40
2018-07-23T00:35:33.943Z,100428.19
2018-07-23T00:38:01.993Z,100430.63
2018-07-23T00:40:30.023Z,100428.48
2018-07-23T00:42:58.041Z,100434.48
2018-07-23T00:45:26.060Z,100436.31
2018-07-23T00:47:54.103Z,100442.89
2018-07-23T00:50:22.124Z,100444.71
2018-07-23T00:52:50.147Z,100444.13
2018-07-23T00:55:18.164Z,100443.93
2018-07-23T00:57:46.203Z,100444.34
2018-07-23T01:00:14.226Z,100440.72
2018-07-23T01:02:42.479Z,100442.12
2018-07-23T01:05:10.515Z,100440.94
2018-07-23T01:07:38.536Z,100445.15
2018-07-23T01:10:06.568Z,100449.56
2018-07-23T01:12:35.498Z,100446.14
2018-07-23T01:15:03.651Z,100451.73
2018-07-23T01:17:31.682Z,100447.74
2018-07-23T01:20:00.266Z,100451.13
2018-07-23T01:22:28.883Z,100448.55
2018-07-23T01:24:57.791Z,100454.34
2018-07-23T01:27:25.816Z,100449.95
2018-07-23T01:29:53.823Z,100442.38
2018-07-23T01:32:22.231Z,100443.55
2018-07-23T01:34:50.391Z,100447.95
2018-07-23T01:37:18.904Z,100447.95
2018-07-23T01:39:46.954Z,100453.70
2018-07-23T01:42:14.962Z,100450.91
2018-07-23T01:44:43.087Z,100448.34
2018-07-23T01:47:11.550Z,100447.74
2018-07-23T01:49:39.582Z,100447.53
2018-07-23T01:52:07.630Z,100438.57
2018-07-23T01:54:36.033Z,100448.18
2018-07-23T01:57:04.348Z,100448.19
2018-07-23T01:59:32.400Z,100447.63
2018-07-23T02:02:00.435Z,100452.45
2018-07-23T02:04:28.479Z,100453.44
2018-07-23T02:06:56.507Z,100455.04
2018-07-23T02:09:24.564Z,100452.89
2018-07-23T02:11:52.607Z,100452.11
2018-07-23T02:14:20.630Z,100452.75
2018-07-23T02:16:48.667Z,100453.94
2018-07-23T02:19:16.683Z,100459.53
2018-07-23T02:21:44.739Z,100452.58
2018-07-23T02:24:12.781Z,100451.41
2018-07-23T02:26:40.787Z,100463.38
2018-07-23T02:29:08.827Z,100456.63
2018-07-23T02:31:36.883Z,100461.03
2018-07-23T02:34:04.899Z,100460.23
2018-07-23T02:36:32.939Z,100459.46
2018-07-23T02:39:00.991Z,100463.23
2018-07-23T02:41:29.039Z,100457.66
2018-07-23T02:43:57.063Z,100460.86
2018-07-23T02:46:25.114Z,100456.11
2018-07-23T02:48:53.162Z,100454.27
2018-07-23T02:51:21.207Z,100456.08
2018-07-23T02:53:49.245Z,100455.89
2018-07-23T02:56:17.263Z,100457.08
2018-07-23T02:58:45.411Z,100459.86
2018-07-23T03:01:13.448Z,100464.46
2018-07-23T03:03:41.491Z,100466.66
2018-07-23T03:06:09.499Z,100471.25
2018-07-23T03:08:37.539Z,100472.22
2018-07-23T03:11:05.579Z,100467.06
2018-07-23T03:13:33.623Z,100471.23
2018-07-23T03:16:01.663Z,100473.03
2018-07-23T03:18:29.736Z,100479.39
2018-07-23T03:20:57.770Z,100482.97
2018-07-23T03:23:25.863Z,100483.76
2018-07-23T03:25:53.893Z,100486.72
2018-07-23T03:28:22.012Z,100496.47
2018-07-23T03:30:50.100Z,100498.06
2018-07-23T03:33:18.074Z,100502.83
2018-07-23T03:35:46.122Z,100506.62
2018-07-23T03:38:14.172Z,100514.74
2018-07-23T03:40:42.223Z,100512.77
2018-07-23T03:43:10.268Z,100516.16
2018-07-23T03:45:38.307Z,100514.19
2018-07-23T03:48:06.379Z,100506.44
2018-07-23T03:50:34.411Z,100510.80
2018-07-23T03:53:02.472Z,100507.04
2018-07-23T03:55:30.511Z,100510.80
2018-07-23T03:57:58.559Z,100509.61
2018-07-23T04:00:26.635Z,100509.81
2018-07-23T04:02:54.682Z,100515.61
2018-07-23T04:05:22.720Z,100519.19
2018-07-23T04:07:50.756Z,100512.44
2018-07-23T04:10:18.803Z,100511.45
2018-07-23T04:12:46.838Z,100514.64
2018-07-23T04:15:15.040Z,100516.05
2018-07-23T04:17:43.073Z,100509.67
2018-07-23T04:20:11.111Z,100511.67
2018-07-23T04:22:39.184Z,100512.08
2018-07-23T04:25:07.259Z,100516.07
2018-07-23T04:27:35.407Z,100515.26
2018-07-23T04:30:03.495Z,100514.08
2018-07-23T04:32:31.535Z,100513.47
2018-07-23T04:34:59.603Z,100517.45
2018-07-23T04:37:27.631Z,100523.20
2018-07-23T04:39:55.651Z,100519.39
2018-07-23T04:42:23.701Z,100515.49
2018-07-23T04:44:51.711Z,100514.84
2018-07-23T04:47:19.752Z,100516.55
2018-07-23T04:49:47.968Z,100518.45
2018-07-23T04:52:15.980Z,100521.19
2018-07-23T04:54:44.036Z,100520.92
2018-07-23T04:57:12.076Z,100526.55
2018-07-23T04:59:40.099Z,100524.98
2018-07-23T05:02:08.135Z,100524.64
2018-07-23T05:04:36.167Z,100530.14
2018-07-23T05:07:04.308Z,100531.77
2018-07-23T05:09:32.362Z,100532.53
2018-07-23T05:12:00.383Z,100531.80
2018-07-23T05:14:28.415Z,100531.73
2018-07-23T05:16:56.428Z,100530.48
2018-07-23T05:19:24.779Z,100534.27
2018-07-23T05:21:52.870Z,100527.31
2018-07-23T05:24:20.957Z,100531.20
2018-07-23T05:26:49.000Z,100533.98
2018-07-23T05:29:17.036Z,100532.79
2018-07-23T05:31:45.144Z,100529.56
2018-07-23T05:34:13.115Z,100527.42
2018-07-23T05:36:41.488Z,100527.78
2018-07-23T05:39:10.982Z,100532.08
2018-07-23T05:41:39.016Z,100527.36
2018-07-23T05:44:07.144Z,100529.27
2018-07-23T05:46:35.215Z,100529.13
2018-07-23T05:49:03.274Z,100531.55
2018-07-23T05:51:31.335Z,100532.86
2018-07-23T05:53:59.387Z,100543.17
2018-07-23T05:56:27.633Z,100537.67
2018-07-23T05:58:55.811Z,100542.26
2018-07-23T06:01:23.843Z,100528.58
2018-07-23T06:03:52.180Z,100536.91
2018-07-23T06:06:20.283Z,100538.94
2018-07-23T06:08:48.296Z,100534.89
2018-07-23T06:11:16.709Z,100539.97
2018-07-23T06:13:44.746Z,100544.03
2018-07-23T06:16:12.772Z,100543.16
2018-07-23T06:18:40.863Z,100537.86
2018-07-23T06:21:08.915Z,100539.14
2018-07-23T06:23:36.993Z,100545.52
2018-07-23T06:26:05.162Z,100537.17
2018-07-23T06:28:33.363Z,100528.62
2018-07-23T06:31:01.397Z,100529.92
2018-07-23T06:33:29.584Z,100537.88
2018-07-23T06:35:57.612Z,100530.45
2018-07-23T06:38:25.652Z,100539.64
2018-07-23T06:40:53.707Z,100541.44
2018-07-23T06:43:21.730Z,100541.83
2018-07-23T06:45:49.781Z,100540.61
2018-07-23T06:48:17.822Z,100548.60
2018-07-23T06:50:46.258Z,100546.59
2018-07-23T06:53:14.298Z,100549.81
2018-07-23T06:55:42.363Z,100560.07
2018-07-23T06:58:10.439Z,100550.24
2018-07-23T07:00:38.473Z,100545.92
2018-07-23T07:03:06.944Z,100558.70
2018-07-23T07:05:34.983Z,100550.86
2018-07-23T07:08:03.023Z,100557.93
2018-07-23T07:10:31.071Z,100558.77
2018-07-23T07:12:59.084Z,100560.63
2018-07-23T07:15:27.155Z,100555.69
2018-07-23T07:17:55.212Z,100555.01
2018-07-23T07:20:23.290Z,100563.58
2018-07-23T07:22:51.349Z,100561.15
2018-07-23T07:25:19.465Z,100563.46
2018-07-23T07:27:47.511Z,100564.05
2018-07-23T07:30:15.554Z,100567.75
2018-07-23T07:32:43.669Z,100557.15
2018-07-23T07:35:11.731Z,100564.23
2018-07-23T07:37:39.758Z,100563.04
2018-07-23T07:40:07.808Z,100562.27
2018-07-23T07:42:35.858Z,100564.52
2018-07-23T07:45:04.003Z,100571.06
2018-07-23T07:47:32.064Z,100557.28
2018-07-23T07:50:00.112Z,100560.20
2018-07-23T07:52:28.190Z,100556.60
2018-07-23T07:54:56.207Z,100558.48
2018-07-23T07:57:24.540Z,100554.95
2018-07-23T07:59:52.601Z,100557.08
2018-07-23T08:02:20.647Z,100557.20
2018-07-23T08:04:48.736Z,100558.31
2018-07-23T08:07:16.829Z,100555.09
2018-07-23T08:09:45.148Z,100555.55
2018-07-23T08:12:13.184Z,100552.22
2018-07-23T08:14:41.234Z,100556.05
2018-07-23T08:17:09.267Z,100557.89
2018-07-23T08:19:37.328Z,100559.14
2018-07-23T08:22:05.381Z,100559.73
2018-07-23T08:24:33.454Z,100562.00
2018-07-23T08:27:01.471Z,100563.69
2018-07-23T08:29:29.794Z,100558.87
2018-07-23T08:31:58.067Z,100559.73
2018-07-23T08:34:25.936Z,100555.45
2018-07-23T08:36:53.972Z,100558.59
2018-07-23T08:39:22.013Z,100558.48
2018-07-23T08:41:50.062Z,100563.98
2018-07-23T08:44:18.081Z,100563.37
2018-07-23T08:46:46.163Z,100560.85
2018-07-23T08:49:14.548Z,100562.03
2018-07-23T08:51:42.570Z,100562.75
2018-07-23T08:54:10.673Z,100565.00
2018-07-23T08:56:38.719Z,100568.44
2018-07-23T08:59:06.790Z,100564.62
2018-07-23T09:01:35.055Z,100568.92
2018-07-23T09:04:03.095Z,100567.59
2018-07-23T09:06:31.154Z,100569.46
2018-07-23T09:08:59.191Z,100565.18
2018-07-23T09:11:27.225Z,100562.16
2018-07-23T09:13:55.295Z,100561.94
2018-07-23T09:16:23.347Z,100565.14
2018-07-23T09:18:51.939Z,100564.95
2018-07-23T09:21:19.963Z,100565.02
2018-07-23T09:23:48.013Z,100567.09
2018-07-23T09:26:16.047Z,100568.17
2018-07-23T09:28:44.087Z,100571.91
2018-07-23T09:31:12.167Z,100566.36
2018-07-23T09:33:40.211Z,100575.55
2018-07-23T09:36:08.259Z,100572.90
2018-07-23T09:38:36.353Z,100563.61
2018-07-23T09:41:04.427Z,100565.77
2018-07-23T09:43:32.735Z,100564.11
2018-07-23T09:46:00.775Z,100558.50
2018-07-23T09:48:28.814Z,100557.18
2018-07-23T09:50:57.139Z,100559.27
2018-07-23T09:53:25.205Z,100560.84
2018-07-23T09:55:53.232Z,100556.17
2018-07-23T09:58:21.378Z,100554.86
2018-07-23T10:00:54.683Z,100555.12
2018-07-23T10:03:22.832Z,100557.03
2018-07-23T10:05:50.772Z,100554.59
2018-07-23T10:08:18.815Z,100546.27
2018-07-23T10:10:46.856Z,100551.50
2018-07-23T10:13:14.899Z,100554.34
2018-07-23T10:15:43.218Z,100552.95
2018-07-23T10:18:11.268Z,100551.12
2018-07-23T10:20:39.279Z,100564.30
2018-07-23T10:23:07.648Z,100558.99
2018-07-23T10:25:35.667Z,100557.74
2018-07-23T10:28:03.707Z,100553.42
2018-07-23T10:30:31.767Z,100555.18
2018-07-23T10:32:59.866Z,100551.39
2018-07-23T10:35:27.903Z,100554.73
2018-07-23T10:37:55.983Z,100552.36
2018-07-23T10:40:24.002Z,100552.96
2018-07-23T10:42:52.395Z,100550.61
2018-07-23T10:45:20.443Z,100553.00
2018-07-23T10:47:48.496Z,100561.21
2018-07-23T10:50:16.561Z,100554.73
2018-07-23T10:52:44.592Z,100556.14
2018-07-23T10:55:12.656Z,100556.06
2018-07-23T10:57:40.730Z,100561.71
2018-07-23T11:00:08.889Z,100556.72
2018-07-23T11:02:37.488Z,100548.69
2018-07-23T11:05:06.435Z,100553.66
2018-07-23T11:07:34.518Z,100558.14
2018-07-23T11:10:02.733Z,100551.22
2018-07-23T11:12:31.288Z,100550.44
2018-07-23T11:14:59.437Z,100547.78
2018-07-23T11:17:27.545Z,100540.55
2018-07-23T11:19:55.684Z,100543.06
2018-07-23T11:22:23.797Z,100541.02
2018-07-23T11:24:51.970Z,100544.80
2018-07-23T11:27:20.050Z,100550.77
2018-07-23T11:29:48.112Z,100547.47
2018-07-23T11:32:16.393Z,100539.80
2018-07-23T11:34:44.459Z,100542.61
2018-07-23T11:37:12.529Z,100539.73
2018-07-23T11:39:40.664Z,100547.42
2018-07-23T11:42:08.707Z,100542.87
2018-07-23T11:44:36.808Z,100540.69
2018-07-23T11:47:05.129Z,100544.48
2018-07-23T11:49:33.461Z,100540.22
2018-07-23T11:52:01.529Z,100535.20
2018-07-23T11:54:29.572Z,100536.16
2018-07-23T11:56:57.792Z,100541.69
2018-07-23T11:59:25.788Z,100540.88
2018-07-23T12:01:53.853Z,100540.27
2018-07-23T12:04:21.975Z,100535.03
2018-07-23T12:06:49.963Z,100539.44
2018-07-23T12:09:18.048Z,100531.55
2018-07-23T12:11:46.148Z,100540.55
2018-07-23T12:14:14.197Z,100537.55
2018-07-23T12:16:42.264Z,100536.28
2018-07-23T12:19:10.318Z,100530.75
2018-07-23T12:21:38.404Z,100526.52
2018-07-23T12:24:06.626Z,100528.55
2018-07-23T12:26:34.669Z,100534.38
2018-07-23T12:29:02.739Z,100519.09
2018-07-23T12:31:30.809Z,100520.83
2018-07-23T12:33:58.871Z,100514.72
2018-07-23T12:36:26.921Z,100525.27
2018-07-23T12:38:54.967Z,100519.58
2018-07-23T12:41:23.069Z,100530.62
2018-07-23T12:43:51.955Z,100522.59
2018-07-23T12:46:20.208Z,100513.12
2018-07-23T12:48:48.270Z,100518.79
2018-07-23T12:51:16.332Z,100521.48
2018-07-23T12:53:44.363Z,100513.58
2018-07-23T12:56:12.569Z,100515.94
2018-07-23T12:58:40.618Z,100518.62
2018-07-23T13:01:09.249Z,100514.03
2018-07-23T13:03:37.365Z,100520.81
2018-07-23T13:06:05.439Z,100516.09
2018-07-23T13:08:33.504Z,100519.25
2018-07-23T13:11:01.556Z,100517.36
2018-07-23T13:13:29.596Z,100512.13
2018-07-23T13:15:57.666Z,100519.25
2018-07-23T13:18:25.722Z,100512.02
2018-07-23T13:20:53.793Z,100518.44
2018-07-23T13:23:21.854Z,100523.77
2018-07-23T13:25:49.946Z,100519.81
2018-07-23T13:28:18.011Z,100515.59
2018-07-23T13:30:46.081Z,100518.42
2018-07-23T13:33:14.188Z,100514.63
2018-07-23T13:35:42.267Z,100512.25
2018-07-23T13:38:10.376Z,100511.81
2018-07-23T13:40:38.426Z,100509.13
2018-07-23T13:43:06.491Z,100505.87
2018-07-23T13:45:34.663Z,100511.53
2018-07-23T13:48:02.773Z,100509.27
2018-07-23T13:50:30.969Z,100508.31
2018-07-23T13:52:59.085Z,100501.69
2018-07-23T13:55:27.336Z,100497.25
2018-07-23T13:57:55.416Z,100498.26
2018-07-23T14:00:23.488Z,100494.63
2018-07-23T14:02:51.563Z,100490.18
2018-07-23T14:05:19.668Z,100481.97
2018-07-23T14:07:47.700Z,100479.29
2018-07-23T14:10:15.783Z,100480.08
2018-07-23T14:12:43.877Z,100480.68
2018-07-23T14:15:11.972Z,100479.85
2018-07-23T14:17:40.013Z,100477.97
2018-07-23T14:20:08.108Z,100479.55
2018-07-23T14:22:36.186Z,100477.44
2018-07-23T14:25:04.432Z,100474.92
2018-07-23T14:27:32.705Z,100474.00
2018-07-23T14:30:00.779Z,100476.88
2018-07-23T14:32:28.876Z,100473.88
2018-07-23T14:34:56.944Z,100472.75
2018-07-23T14:37:25.040Z,100474.37
2018-07-23T14:39:54.177Z,100474.50
2018-07-23T14:42:22.272Z,100472.12
2018-07-23T14:44:50.343Z,100469.70
2018-07-23T14:47:18.445Z,100465.11
2018-07-23T14:49:46.550Z,100469.83
2018-07-23T14:52:14.574Z,100467.00
2018-07-23T14:54:49.067Z,100460.34
2018-07-23T14:57:17.142Z,100461.59
2018-07-23T14:59:45.348Z,100462.34
2018-07-23T15:02:13.475Z,100467.03
2018-07-23T15:04:41.578Z,100464.31
2018-07-23T15:07:09.919Z,100461.97
2018-07-23T15:09:38.418Z,100461.52
2018-07-23T15:12:06.526Z,100467.61
2018-07-23T15:14:34.629Z,100464.72
2018-07-23T15:17:02.681Z,100466.57
2018-07-23T15:19:30.735Z,100465.15
2018-07-23T15:21:58.842Z,100472.71
2018-07-23T15:24:26.923Z,100471.42
2018-07-23T15:26:54.988Z,100472.04
2018-07-23T15:29:23.080Z,100472.96
2018-07-23T15:31:51.222Z,100469.70
2018-07-23T15:34:19.863Z,100470.62
2018-07-23T15:36:48.489Z,100470.12
2018-07-23T15:39:16.659Z,100474.66
2018-07-23T15:41:44.968Z,100470.91
2018-07-23T15:44:13.200Z,100473.04
2018-07-23T15:46:41.212Z,100470.33
2018-07-23T15:49:09.454Z,100466.85
2018-07-23T15:51:37.538Z,100465.98
2018-07-23T15:54:05.978Z,100464.01
2018-07-23T15:56:34.205Z,100459.08
2018-07-23T15:59:02.350Z,100461.08
2018-07-23T16:01:30.505Z,100460.51
2018-07-23T16:03:58.954Z,100457.50
2018-07-23T16:06:27.070Z,100455.86
2018-07-23T16:08:55.448Z,100460.58
2018-07-23T16:11:23.624Z,100455.18
2018-07-23T16:13:51.719Z,100452.81
2018-07-23T16:16:19.860Z,100448.55
2018-07-23T16:18:47.968Z,100448.72
2018-07-23T16:21:16.237Z,100417.78
2018-07-23T16:23:44.363Z,100444.22
2018-07-23T16:26:12.432Z,100440.60
2018-07-23T16:28:40.606Z,100452.81
2018-07-23T16:31:08.672Z,100445.23
2018-07-23T16:33:37.088Z,100448.22
2018-07-23T16:36:05.153Z,100440.98
2018-07-23T16:38:33.269Z,100447.28
2018-07-23T16:41:01.431Z,100447.78
2018-07-23T16:43:29.604Z,100446.71
2018-07-23T16:45:57.817Z,100449.18
2018-07-23T16:48:25.851Z,100447.93
2018-07-23T16:50:53.907Z,100439.70
2018-07-23T16:53:22.282Z,100443.46
2018-07-23T16:55:50.440Z,100445.22
2018-07-23T16:58:18.839Z,100448.39
2018-07-23T17:00:46.939Z,100443.21
2018-07-23T17:03:15.103Z,100443.38
2018-07-23T17:05:45.592Z,100444.97
2018-07-23T17:08:14.046Z,100449.52
2018-07-23T17:10:42.147Z,100452.03
2018-07-23T17:13:10.234Z,100446.80
2018-07-23T17:15:38.348Z,100446.97
2018-07-23T17:18:06.526Z,100447.77
2018-07-23T17:20:34.960Z,100447.30
2018-07-23T17:23:03.093Z,100442.28
2018-07-23T17:25:31.253Z,100449.98
2018-07-23T17:27:59.782Z,100446.34
2018-07-23T17:30:27.875Z,100441.16
2018-07-23T17:32:55.948Z,100443.25
2018-07-23T17:35:24.097Z,100438.83
2018-07-23T17:37:52.166Z,100444.50
2018-07-23T17:40:20.268Z,100444.21
2018-07-23T17:42:48.356Z,100446.59
2018-07-23T17:45:16.519Z,100450.69
2018-07-23T17:47:44.656Z,100444.08
2018-07-23T17:50:15.956Z,100446.27
2018-07-23T17:52:44.330Z,100448.80
2018-07-23T17:55:12.719Z,100451.36
2018-07-23T17:57:40.780Z,100447.59
2018-07-23T18:00:08.865Z,100451.22
2018-07-23T18:02:36.937Z,100441.91
2018-07-23T18:05:05.000Z,100450.13
2018-07-23T18:07:33.098Z,100446.99
2018-07-23T18:10:01.265Z,100442.59
2018-07-23T18:12:29.318Z,100448.73
2018-07-23T18:14:57.401Z,100447.95
2018-07-23T18:17:25.478Z,100450.31
2018-07-23T18:19:53.542Z,100448.30
2018-07-23T18:22:21.882Z,100450.67
2018-07-23T18:24:49.984Z,100446.58
2018-07-23T18:27:18.051Z,100448.80
2018-07-23T18:29:46.291Z,100444.72
2018-07-23T18:32:14.450Z,100451.48
2018-07-23T18:34:42.539Z,100445.50
2018-07-23T18:37:10.653Z,100446.15
2018-07-23T18:39:39.022Z,100442.34
2018-07-23T18:42:07.167Z,100443.46
2018-07-23T18:44:35.264Z,100439.53
2018-07-23T18:47:03.372Z,100450.41
2018-07-23T18:49:44.023Z,100451.05
2018-07-23T18:52:12.522Z,100446.92
2018-07-23T18:54:41.372Z,100449.16
2018-07-23T18:57:09.998Z,100459.23
2018-07-23T18:59:38.153Z,100457.79
2018-07-23T19:02:07.771Z,100454.80
2018-07-23T19:04:35.811Z,100462.19
2018-07-23T19:07:03.916Z,100456.19
2018-07-23T19:09:32.102Z,100462.94
2018-07-23T19:12:00.708Z,100464.19
2018-07-23T19:14:29.044Z,100464.64
2018-07-23T19:16:58.126Z,100466.04
2018-07-23T19:19:26.359Z,100463.18
2018-07-23T19:21:54.499Z,100470.23
2018-07-23T19:24:22.694Z,100473.34
2018-07-23T19:26:51.434Z,100467.95
2018-07-23T19:29:19.572Z,100471.53
2018-07-23T19:31:48.015Z,100472.59
2018-07-23T19:34:16.235Z,100485.29
2018-07-23T19:36:44.356Z,100480.85
2018-07-23T19:39:14.305Z,100483.77
2018-07-23T19:41:42.450Z,100482.64
2018-07-23T19:44:10.890Z,100492.45
2018-07-23T19:46:39.162Z,100486.06
2018-07-23T19:49:07.311Z,100484.44
2018-07-23T19:51:35.691Z,100487.98
2018-07-23T19:54:03.947Z,100487.55
2018-07-23T19:56:32.077Z,100488.44
2018-07-23T19:59:00.328Z,100494.30
2018-07-23T20:01:28.429Z,100493.16
2018-07-23T20:03:56.624Z,100494.80
2018-07-23T20:06:26.151Z,100490.65
2018-07-23T20:08:55.041Z,100488.05
2018-07-23T20:11:23.910Z,100489.73
2018-07-23T20:13:52.266Z,100485.89
2018-07-23T20:16:20.511Z,100490.97
2018-07-23T20:18:48.615Z,100480.55
2018-07-23T20:21:16.715Z,100487.00
2018-07-23T20:23:45.099Z,100481.23
2018-07-23T20:26:13.236Z,100482.28
2018-07-23T20:28:41.311Z,100492.55
2018-07-23T20:31:09.580Z,100486.50
2018-07-23T20:33:37.643Z,100486.27
2018-07-23T20:36:06.262Z,100486.05
2018-07-23T20:38:34.801Z,100494.10
2018-07-23T20:41:02.887Z,100489.45
2018-07-23T20:43:31.715Z,100490.97
2018-07-23T20:46:00.321Z,100497.36
2018-07-23T20:48:28.408Z,100497.81
2018-07-23T20:50:56.820Z,100495.83
2018-07-23T20:53:24.883Z,100498.84
2018-07-23T20:55:53.095Z,100505.92
2018-07-23T20:58:21.471Z,100500.48
2018-07-23T21:00:49.566Z,100499.62
2018-07-23T21:03:17.656Z,100502.20
2018-07-23T21:05:45.757Z,100505.99
2018-07-23T21:08:13.865Z,100497.91
2018-07-23T21:10:41.992Z,100503.11
2018-07-23T21:13:10.097Z,100504.51
2018-07-23T21:15:38.467Z,100507.77
2018-07-23T21:18:06.614Z,100509.38
2018-07-23T21:20:34.730Z,100512.55
2018-07-23T21:23:03.012Z,100509.11
2018-07-23T21:25:31.149Z,100508.23
2018-07-23T21:27:59.252Z,100509.20
2018-07-23T21:30:27.328Z,100508.48
2018-07-23T21:32:55.419Z,100504.52
2018-07-23T21:35:23.560Z,100508.86
2018-07-23T21:37:51.812Z,100511.14
2018-07-23T21:40:19.927Z,100511.64
2018-07-23T21:42:48.073Z,100513.77
2018-07-23T21:45:16.486Z,100518.46
2018-07-23T21:47:44.564Z,100512.64
2018-07-23T21:50:12.619Z,100523.47
2018-07-23T21:52:40.774Z,100519.39
2018-07-23T21:55:08.938Z,100520.53
2018-07-23T21:57:37.011Z,100516.19
2018-07-23T22:00:09.389Z,100523.94
2018-07-23T22:02:38.088Z,100525.41
2018-07-23T22:05:06.766Z,100527.88
2018-07-23T22:07:34.887Z,100527.08
2018-07-23T22:10:03.046Z,100524.95
2018-07-23T22:12:31.213Z,100524.86
2018-07-23T22:14:59.271Z,100530.01
2018-07-23T22:17:27.324Z,100535.54
2018-07-23T22:19:55.440Z,100527.39
2018-07-23T22:22:23.827Z,100531.48
2018-07-23T22:24:51.946Z,100534.74
2018-07-23T22:27:20.044Z,100533.56
2018-07-23T22:29:48.145Z,100534.08
2018-07-23T22:32:16.227Z,100538.00
2018-07-23T22:34:44.330Z,100541.13
2018-07-23T22:37:12.536Z,100540.04
2018-07-23T22:39:40.602Z,100539.14
2018-07-23T22:42:08.717Z,100532.53
2018-07-23T22:44:36.895Z,100529.27
2018-07-23T22:47:05.331Z,100529.63
2018-07-23T22:49:33.414Z,100525.92
2018-07-23T22:52:01.486Z,100527.93
2018-07-23T22:54:29.549Z,100524.13
2018-07-23T22:56:57.612Z,100529.14
2018-07-23T22:59:25.698Z,100523.52
2018-07-23T23:01:53.776Z,100522.12
2018-07-23T23:04:21.817Z,100523.52
2018-07-23T23:06:49.913Z,100521.38
2018-07-23T23:09:18.007Z,100516.81
2018-07-23T23:11:46.095Z,100506.68
2018-07-23T23:14:14.166Z,100515.13
2018-07-23T23:16:42.212Z,100511.61
2018-07-23T23:19:10.344Z,100507.70
2018-07-23T23:21:38.379Z,100515.19
2018-07-23T23:24:06.467Z,100514.83
2018-07-23T23:26:34.523Z,100506.46
2018-07-23T23:29:02.600Z,100515.13
2018-07-23T23:31:30.636Z,100515.06
2018-07-23T23:33:58.672Z,100515.53
2018-07-23T23:36:26.733Z,100517.25
2018-07-23T23:38:55.123Z,100515.76
2018-07-23T23:41:23.163Z,100517.28
2018-07-23T23:43:51.211Z,100515.13
2018-07-23T23:46:19.339Z,100514.77
2018-07-23T23:48:47.412Z,100507.75
2018-07-23T23:51:15.490Z,100507.20
2018-07-23T23:53:43.545Z,100515.22
2018-07-23T23:56:11.624Z,100517.67
2018-07-23T23:58:39.656Z,100513.09
